createdAt,value
2019-05-01T00:00:15.953Z,10.6
2019-05-01T00:01:10.676Z,10.7
2019-05-01T00:02:12.194Z,10.8
2019-05-01T00:03:13.598Z,10.8
2019-05-01T00:04:15.079Z,10.6
2019-05-01T00:05:16.478Z,10.4
2019-05-01T00:06:17.957Z,10.3
2019-05-01T00:07:19.354Z,10.3
2019-05-01T00:08:20.838Z,10.0
2019-05-01T00:09:22.231Z,10.0
2019-05-01T00:10:23.749Z,9.9
2019-05-01T00:11:25.147Z,10.1
2019-05-01T00:12:26.542Z,10.0
2019-05-01T00:13:28.039Z,10.1
2019-05-01T00:14:29.437Z,10.0
2019-05-01T00:15:30.835Z,9.9
2019-05-01T00:16:32.360Z,10.0
2019-05-01T00:17:33.774Z,10.0
2019-05-01T00:18:35.250Z,9.8
2019-05-01T00:19:36.637Z,9.7
2019-05-01T00:20:38.121Z,9.7
2019-05-01T00:21:39.516Z,9.9
2019-05-01T00:22:40.919Z,9.9
2019-05-01T00:23:42.443Z,9.8
2019-05-01T00:24:43.836Z,9.8
2019-05-01T00:25:45.233Z,9.9
2019-05-01T00:26:46.771Z,9.9
2019-05-01T00:27:48.164Z,9.9
2019-05-01T00:28:49.648Z,9.9
2019-05-01T00:29:51.040Z,9.9
2019-05-01T00:30:52.526Z,9.7
2019-05-01T00:31:53.922Z,9.6
2019-05-01T00:32:55.318Z,9.6
2019-05-01T00:33:56.900Z,9.6
2019-05-01T00:34:58.244Z,9.6
2019-05-01T00:35:59.640Z,9.6
2019-05-01T00:37:01.169Z,9.6
2019-05-01T00:38:02.565Z,9.7
2019-05-01T00:39:03.962Z,9.5
2019-05-01T00:40:05.496Z,9.7
2019-05-01T00:41:06.899Z,9.6
2019-05-01T00:42:08.288Z,9.6
2019-05-01T00:43:09.811Z,9.5
2019-05-01T00:44:11.208Z,9.6
2019-05-01T00:45:12.693Z,9.6
2019-05-01T00:46:14.086Z,9.5
2019-05-01T00:47:15.588Z,9.4
2019-05-01T00:48:16.983Z,9.4
2019-05-01T00:49:18.457Z,9.5
2019-05-01T00:50:19.851Z,9.8
2019-05-01T00:51:21.336Z,9.9
2019-05-01T00:52:22.731Z,10.0
2019-05-01T00:53:24.223Z,10.2
2019-05-01T00:54:25.618Z,10.0
2019-05-01T00:55:27.107Z,9.7
2019-05-01T00:56:28.502Z,9.7
2019-05-01T00:57:29.898Z,9.7
2019-05-01T00:58:31.419Z,9.8
2019-05-01T00:59:32.815Z,9.9
2019-05-01T01:00:42.965Z,10.1
2019-05-01T01:01:35.740Z,10.3
2019-05-01T01:02:37.142Z,10.0
2019-05-01T01:03:38.535Z,9.7
2019-05-01T01:04:40.063Z,9.7
2019-05-01T01:05:41.459Z,9.8
2019-05-01T01:06:42.940Z,9.8
2019-05-01T01:07:44.341Z,9.9
2019-05-01T01:08:45.737Z,9.7
2019-05-01T01:09:47.265Z,9.8
2019-05-01T01:10:48.664Z,9.7
2019-05-01T01:11:50.061Z,9.7
2019-05-01T01:12:51.585Z,9.7
2019-05-01T01:13:52.977Z,9.5
2019-05-01T01:14:54.372Z,9.6
2019-05-01T01:15:55.910Z,9.6
2019-05-01T01:16:57.304Z,9.5
2019-05-01T01:17:58.705Z,9.5
2019-05-01T01:19:00.226Z,9.3
2019-05-01T01:20:01.630Z,9.4
2019-05-01T01:21:03.111Z,9.5
2019-05-01T01:22:04.508Z,9.9
2019-05-01T01:23:06.000Z,10.0
2019-05-01T01:24:07.388Z,9.7
2019-05-01T01:25:08.870Z,9.8
2019-05-01T01:26:10.269Z,9.4
2019-05-01T01:27:11.751Z,9.3
2019-05-01T01:28:13.147Z,9.4
2019-05-01T01:29:14.541Z,9.6
2019-05-01T01:30:16.072Z,9.4
2019-05-01T01:31:17.488Z,9.7
2019-05-01T01:32:18.871Z,10.0
2019-05-01T01:33:20.392Z,9.7
2019-05-01T01:34:21.796Z,9.5
2019-05-01T01:35:23.187Z,9.6
2019-05-01T01:36:24.715Z,9.5
2019-05-01T01:37:26.117Z,9.4
2019-05-01T01:38:27.514Z,9.2
2019-05-01T01:39:29.038Z,9.3
2019-05-01T01:40:30.435Z,8.9
2019-05-01T01:41:31.918Z,9.0
2019-05-01T01:42:33.310Z,9.1
2019-05-01T01:43:34.709Z,9.3
2019-05-01T01:44:36.241Z,9.1
2019-05-01T01:45:37.638Z,9.4
2019-05-01T01:46:39.036Z,9.5
2019-05-01T01:47:40.559Z,9.5
2019-05-01T01:48:41.969Z,9.4
2019-05-01T01:49:43.362Z,9.3
2019-05-01T01:50:44.881Z,9.0
2019-05-01T01:51:46.273Z,9.0
2019-05-01T01:52:47.672Z,9.0
2019-05-01T01:53:49.205Z,9.0
2019-05-01T01:54:50.602Z,9.1
2019-05-01T01:55:52.083Z,9.0
2019-05-01T01:56:53.481Z,9.1
2019-05-01T01:57:54.965Z,9.1
2019-05-01T01:58:56.362Z,9.1
2019-05-01T01:59:57.759Z,9.1
2019-05-01T02:01:08.962Z,9.0
2019-05-01T02:02:00.644Z,9.1
2019-05-01T02:03:02.045Z,9.2
2019-05-01T02:04:03.613Z,9.1
2019-05-01T02:05:05.005Z,9.0
2019-05-01T02:06:06.407Z,9.0
2019-05-01T02:07:07.929Z,9.0
2019-05-01T02:08:09.327Z,9.1
2019-05-01T02:09:10.722Z,9.2
2019-05-01T02:10:12.314Z,9.1
2019-05-01T02:11:13.609Z,9.1
2019-05-01T02:12:15.133Z,9.0
2019-05-01T02:13:16.527Z,9.0
2019-05-01T02:14:18.012Z,9.0
2019-05-01T02:15:19.410Z,9.1
2019-05-01T02:16:21.099Z,8.9
2019-05-01T02:17:22.493Z,9.0
2019-05-01T02:18:23.981Z,8.9
2019-05-01T02:19:25.377Z,8.9
2019-05-01T02:20:26.857Z,8.8
2019-05-01T02:21:28.276Z,8.9
2019-05-01T02:22:29.742Z,9.1
2019-05-01T02:23:31.141Z,9.0
2019-05-01T02:24:32.534Z,8.9
2019-05-01T02:25:34.060Z,8.9
2019-05-01T02:26:35.461Z,8.7
2019-05-01T02:27:36.859Z,8.9
2019-05-01T02:28:38.383Z,8.8
2019-05-01T02:29:39.781Z,8.8
2019-05-01T02:30:41.207Z,8.6
2019-05-01T02:31:42.705Z,8.6
2019-05-01T02:32:44.099Z,8.6
2019-05-01T02:33:45.502Z,8.7
2019-05-01T02:34:47.026Z,8.7
2019-05-01T02:35:48.426Z,8.8
2019-05-01T02:36:49.824Z,8.8
2019-05-01T02:37:51.347Z,8.7
2019-05-01T02:38:52.747Z,8.8
2019-05-01T02:39:54.140Z,8.7
2019-05-01T02:40:55.684Z,8.7
2019-05-01T02:41:57.066Z,8.7
2019-05-01T02:42:58.551Z,8.9
2019-05-01T02:43:59.947Z,8.8
2019-05-01T02:45:01.368Z,9.0
2019-05-01T02:46:02.873Z,8.9
2019-05-01T02:47:04.231Z,8.8
2019-05-01T02:48:05.627Z,8.9
2019-05-01T02:49:07.187Z,8.8
2019-05-01T02:50:08.591Z,8.9
2019-05-01T02:51:09.987Z,8.8
2019-05-01T02:52:11.514Z,8.7
2019-05-01T02:53:12.912Z,8.7
2019-05-01T02:54:14.306Z,8.7
2019-05-01T02:55:15.838Z,8.7
2019-05-01T02:56:17.233Z,8.6
2019-05-01T02:57:18.717Z,8.8
2019-05-01T02:58:20.118Z,8.7
2019-05-01T02:59:21.625Z,8.7
2019-05-01T03:00:22.994Z,8.6
2019-05-01T03:01:24.480Z,8.6
2019-05-01T03:02:25.873Z,8.7
2019-05-01T03:03:27.359Z,8.8
2019-05-01T03:04:28.759Z,8.6
2019-05-01T03:05:30.241Z,8.8
2019-05-01T03:06:31.636Z,8.7
2019-05-01T03:07:33.127Z,8.5
2019-05-01T03:08:34.513Z,8.5
2019-05-01T03:09:36.002Z,8.5
2019-05-01T03:10:37.395Z,8.5
2019-05-01T03:11:39.261Z,8.3
2019-05-01T03:12:40.662Z,8.3
2019-05-01T03:13:42.173Z,8.4
2019-05-01T03:14:43.571Z,8.5
2019-05-01T03:15:44.966Z,8.5
2019-05-01T03:16:46.504Z,8.5
2019-05-01T03:17:47.892Z,8.5
2019-05-01T03:18:49.290Z,8.5
2019-05-01T03:19:50.816Z,8.5
2019-05-01T03:20:52.210Z,8.4
2019-05-01T03:21:53.703Z,8.3
2019-05-01T03:22:55.095Z,8.6
2019-05-01T03:23:56.483Z,8.5
2019-05-01T03:24:58.020Z,8.4
2019-05-01T03:25:59.414Z,8.3
2019-05-01T03:27:00.811Z,8.3
2019-05-01T03:28:02.343Z,8.3
2019-05-01T03:29:03.738Z,8.4
2019-05-01T03:30:05.133Z,8.8
2019-05-01T03:31:06.674Z,8.7
2019-05-01T03:32:18.768Z,8.9
2019-05-01T03:33:09.435Z,8.8
2019-05-01T03:34:10.983Z,8.9
2019-05-01T03:35:12.439Z,9.0
2019-05-01T03:36:13.863Z,9.1
2019-05-01T03:37:15.261Z,9.2
2019-05-01T03:38:16.752Z,9.0
2019-05-01T03:39:18.141Z,9.5
2019-05-01T03:40:19.536Z,9.1
2019-05-01T03:41:21.067Z,9.0
2019-05-01T03:42:22.463Z,8.9
2019-05-01T03:43:23.863Z,9.2
2019-05-01T03:44:25.387Z,9.5
2019-05-01T03:45:26.783Z,9.7
2019-05-01T03:46:28.269Z,9.7
2019-05-01T03:47:29.662Z,9.9
2019-05-01T03:48:31.174Z,9.9
2019-05-01T03:49:32.564Z,10.0
2019-05-01T03:50:34.032Z,9.9
2019-05-01T03:51:35.429Z,9.6
2019-05-01T03:52:36.913Z,10.0
2019-05-01T03:53:38.310Z,10.0
2019-05-01T03:54:39.810Z,10.0
2019-05-01T03:55:41.191Z,10.0
2019-05-01T03:56:42.677Z,10.0
2019-05-01T03:57:44.076Z,10.0
2019-05-01T03:58:45.555Z,9.9
2019-05-01T03:59:46.952Z,9.9
2019-05-01T04:00:48.347Z,10.0
2019-05-01T04:01:49.879Z,10.0
2019-05-01T04:02:51.286Z,10.1
2019-05-01T04:03:52.684Z,10.1
2019-05-01T04:04:54.198Z,10.0
2019-05-01T04:05:55.600Z,10.2
2019-05-01T04:06:57.005Z,10.2
2019-05-01T04:07:58.521Z,10.1
2019-05-01T04:08:59.924Z,10.2
2019-05-01T04:10:01.316Z,10.3
2019-05-01T04:11:02.844Z,10.2
2019-05-01T04:12:04.235Z,10.2
2019-05-01T04:13:05.723Z,10.2
2019-05-01T04:14:07.131Z,10.2
2019-05-01T04:15:08.604Z,10.0
2019-05-01T04:16:10.006Z,10.0
2019-05-01T04:17:11.408Z,10.0
2019-05-01T04:18:12.954Z,10.0
2019-05-01T04:19:14.331Z,9.9
2019-05-01T04:20:15.726Z,10.2
2019-05-01T04:21:17.249Z,10.1
2019-05-01T04:22:18.647Z,10.1
2019-05-01T04:23:20.129Z,10.3
2019-05-01T04:24:21.536Z,10.3
2019-05-01T04:25:22.933Z,10.3
2019-05-01T04:26:24.656Z,10.3
2019-05-01T04:27:26.022Z,10.2
2019-05-01T04:28:27.421Z,10.0
2019-05-01T04:29:28.977Z,9.7
2019-05-01T04:30:30.373Z,9.9
2019-05-01T04:31:31.780Z,10.2
2019-05-01T04:32:50.015Z,10.3
2019-05-01T04:33:34.662Z,10.4
2019-05-01T04:34:36.063Z,10.2
2019-05-01T04:35:37.620Z,10.3
2019-05-01T04:36:39.020Z,10.1
2019-05-01T04:37:40.501Z,10.1
2019-05-01T04:38:41.941Z,9.9
2019-05-01T04:39:43.356Z,9.9
2019-05-01T04:40:44.755Z,10.1
2019-05-01T04:41:46.263Z,10.0
2019-05-01T04:42:47.662Z,10.2
2019-05-01T04:43:49.146Z,10.1
2019-05-01T04:44:50.544Z,10.1
2019-05-01T04:45:51.944Z,10.0
2019-05-01T04:46:53.615Z,10.1
2019-05-01T04:47:54.828Z,10.2
2019-05-01T04:48:56.234Z,10.3
2019-05-01T04:49:57.786Z,10.4
2019-05-01T04:50:59.187Z,10.2
2019-05-01T04:52:00.586Z,10.4
2019-05-01T04:53:02.108Z,10.4
2019-05-01T04:54:03.509Z,10.4
2019-05-01T04:55:04.912Z,10.4
2019-05-01T04:56:06.429Z,10.4
2019-05-01T04:57:07.832Z,10.6
2019-05-01T04:58:09.309Z,10.5
2019-05-01T04:59:10.711Z,10.4
2019-05-01T05:00:12.193Z,10.5
2019-05-01T05:01:13.592Z,10.4
2019-05-01T05:02:15.071Z,10.4
2019-05-01T05:03:16.474Z,10.5
2019-05-01T05:04:17.957Z,10.5
2019-05-01T05:05:19.350Z,10.4
2019-05-01T05:06:20.755Z,10.4
2019-05-01T05:07:22.273Z,10.4
2019-05-01T05:08:23.674Z,10.4
2019-05-01T05:09:25.076Z,10.4
2019-05-01T05:10:26.594Z,10.4
2019-05-01T05:11:27.994Z,10.6
2019-05-01T05:12:29.485Z,10.6
2019-05-01T05:13:30.884Z,10.4
2019-05-01T05:14:32.364Z,10.4
2019-05-01T05:15:33.764Z,10.4
2019-05-01T05:16:35.165Z,10.4
2019-05-01T05:17:36.680Z,10.4
2019-05-01T05:18:38.466Z,10.3
2019-05-01T05:19:39.867Z,10.5
2019-05-01T05:20:41.413Z,10.4
2019-05-01T05:21:42.812Z,10.5
2019-05-01T05:22:44.217Z,10.6
2019-05-01T05:23:45.734Z,10.6
2019-05-01T05:24:47.133Z,10.5
2019-05-01T05:25:48.534Z,10.5
2019-05-01T05:26:50.055Z,10.5
2019-05-01T05:27:51.454Z,10.6
2019-05-01T05:28:52.934Z,10.5
2019-05-01T05:29:54.337Z,10.6
2019-05-01T05:30:55.812Z,10.6
2019-05-01T05:31:57.212Z,10.6
2019-05-01T05:32:58.695Z,10.6
2019-05-01T05:34:00.094Z,10.5
2019-05-01T05:35:01.577Z,10.4
2019-05-01T05:36:02.983Z,10.0
2019-05-01T05:37:04.457Z,10.4
2019-05-01T05:38:05.859Z,10.5
2019-05-01T05:39:07.337Z,10.5
2019-05-01T05:40:08.737Z,10.5
2019-05-01T05:41:10.218Z,10.3
2019-05-01T05:42:11.621Z,10.4
2019-05-01T05:43:13.122Z,10.4
2019-05-01T05:44:14.525Z,10.6
2019-05-01T05:45:16.036Z,10.6
2019-05-01T05:46:17.438Z,10.7
2019-05-01T05:47:19.078Z,10.6
2019-05-01T05:48:20.480Z,10.7
2019-05-01T05:49:21.951Z,10.6
2019-05-01T05:50:23.355Z,10.6
2019-05-01T05:51:24.829Z,10.6
2019-05-01T05:52:26.232Z,10.3
2019-05-01T05:53:27.710Z,10.3
2019-05-01T05:54:29.410Z,10.3
2019-05-01T05:55:30.999Z,10.4
2019-05-01T05:56:32.402Z,10.5
2019-05-01T05:57:33.804Z,10.5
2019-05-01T05:58:35.321Z,10.5
2019-05-01T05:59:36.730Z,10.6
2019-05-01T06:00:38.127Z,10.6
2019-05-01T06:01:39.644Z,10.6
2019-05-01T06:02:41.045Z,10.6
2019-05-01T06:03:42.524Z,10.7
2019-05-01T06:04:43.927Z,10.6
2019-05-01T06:05:45.405Z,10.6
2019-05-01T06:06:46.822Z,10.6
2019-05-01T06:07:48.219Z,10.6
2019-05-01T06:08:49.738Z,10.6
2019-05-01T06:09:51.159Z,10.5
2019-05-01T06:10:53.574Z,10.5
2019-05-01T06:11:54.047Z,10.6
2019-05-01T06:12:55.451Z,10.7
2019-05-01T06:13:58.774Z,10.6
2019-05-01T06:15:02.272Z,10.7
2019-05-01T06:15:59.810Z,10.7
2019-05-01T06:17:01.211Z,10.4
2019-05-01T06:18:04.151Z,10.3
2019-05-01T06:19:04.131Z,10.1
2019-05-01T06:20:05.569Z,9.9
2019-05-01T06:21:06.967Z,9.7
2019-05-01T06:22:10.177Z,9.7
2019-05-01T06:23:09.818Z,9.8
2019-05-01T06:24:11.220Z,10.1
2019-05-01T06:25:20.830Z,10.2
2019-05-01T06:26:14.141Z,10.3
2019-05-01T06:27:15.549Z,10.5
2019-05-01T06:28:19.897Z,10.4
2019-05-01T06:29:18.460Z,10.4
2019-05-01T06:30:19.977Z,10.5
2019-05-01T06:31:22.908Z,10.5
2019-05-01T06:32:22.749Z,10.7
2019-05-01T06:33:24.299Z,10.8
2019-05-01T06:34:28.756Z,10.4
2019-05-01T06:35:27.133Z,10.2
2019-05-01T06:36:28.627Z,10.4
2019-05-01T06:37:30.024Z,10.5
2019-05-01T06:38:35.760Z,10.6
2019-05-01T06:39:32.795Z,10.7
2019-05-01T06:40:34.385Z,10.6
2019-05-01T06:41:42.165Z,10.6
2019-05-01T06:42:37.146Z,10.6
2019-05-01T06:43:38.705Z,10.8
2019-05-01T06:44:44.060Z,10.9
2019-05-01T06:45:41.479Z,10.8
2019-05-01T06:46:43.025Z,10.7
2019-05-01T06:47:44.438Z,10.7
2019-05-01T06:48:48.794Z,10.7
2019-05-01T06:49:47.346Z,10.8
2019-05-01T06:50:50.372Z,10.8
2019-05-01T06:51:53.382Z,10.8
2019-05-01T06:52:51.676Z,10.8
2019-05-01T06:53:53.080Z,10.9
2019-05-01T06:54:54.484Z,10.6
2019-05-01T06:55:55.987Z,10.6
2019-05-01T06:56:57.406Z,10.8
2019-05-01T06:57:58.861Z,10.8
2019-05-01T06:59:00.332Z,10.9
2019-05-01T07:00:03.266Z,10.7
2019-05-01T07:01:03.201Z,10.5
2019-05-01T07:02:04.614Z,10.5
2019-05-01T07:03:10.095Z,10.4
2019-05-01T07:04:07.436Z,10.5
2019-05-01T07:05:13.853Z,10.6
2019-05-01T07:06:14.395Z,10.7
2019-05-01T07:07:24.695Z,10.7
2019-05-01T07:08:24.050Z,10.9
2019-05-01T07:09:27.090Z,10.8
2019-05-01T07:10:16.092Z,10.8
2019-05-01T07:11:17.594Z,10.7
2019-05-01T07:12:18.993Z,10.6
2019-05-01T07:13:20.476Z,10.6
2019-05-01T07:14:21.882Z,10.8
2019-05-01T07:15:26.799Z,11.0
2019-05-01T07:16:24.726Z,10.9
2019-05-01T07:17:26.126Z,11.0
2019-05-01T07:18:29.141Z,11.0
2019-05-01T07:19:29.077Z,11.0
2019-05-01T07:20:30.542Z,11.0
2019-05-01T07:21:32.817Z,11.0
2019-05-01T07:22:37.021Z,11.1
2019-05-01T07:23:34.734Z,11.1
2019-05-01T07:24:36.342Z,11.1
2019-05-01T07:25:39.342Z,11.0
2019-05-01T07:26:39.201Z,11.0
2019-05-01T07:27:40.641Z,10.9
2019-05-01T07:28:42.288Z,10.9
2019-05-01T07:29:44.848Z,10.9
2019-05-01T07:30:45.168Z,11.1
2019-05-01T07:31:46.574Z,11.0
2019-05-01T07:32:48.052Z,10.9
2019-05-01T07:33:51.200Z,10.9
2019-05-01T07:34:50.931Z,11.0
2019-05-01T07:35:53.966Z,10.9
2019-05-01T07:36:53.811Z,11.0
2019-05-01T07:37:57.527Z,10.9
2019-05-01T07:38:56.696Z,11.2
2019-05-01T07:39:58.104Z,11.1
2019-05-01T07:41:03.314Z,10.6
2019-05-01T07:42:00.939Z,10.7
2019-05-01T07:43:02.456Z,10.8
2019-05-01T07:44:03.892Z,10.9
2019-05-01T07:45:08.366Z,11.0
2019-05-01T07:46:06.975Z,11.1
2019-05-01T07:47:08.625Z,11.0
2019-05-01T07:48:10.027Z,11.0
2019-05-01T07:49:13.142Z,11.1
2019-05-01T07:50:12.950Z,11.1
2019-05-01T07:51:14.591Z,11.1
2019-05-01T07:52:17.225Z,11.2
2019-05-01T07:53:17.362Z,11.1
2019-05-01T07:54:19.002Z,11.4
2019-05-01T07:55:20.407Z,11.4
2019-05-01T07:56:22.988Z,11.3
2019-05-01T07:57:23.349Z,11.4
2019-05-01T07:58:24.881Z,11.2
2019-05-01T07:59:27.437Z,11.3
2019-05-01T08:00:27.760Z,11.4
2019-05-01T08:01:29.166Z,11.3
2019-05-01T08:02:31.158Z,11.4
2019-05-01T08:03:32.009Z,11.3
2019-05-01T08:05:34.960Z,11.4
2019-05-01T08:06:36.609Z,11.4
2019-05-01T08:07:38.011Z,11.4
2019-05-01T08:08:40.064Z,11.3
2019-05-01T08:09:40.857Z,11.4
2019-05-01T08:10:42.261Z,11.5
2019-05-01T08:11:44.021Z,11.4
2019-05-01T08:12:45.319Z,11.5
2019-05-01T08:13:46.554Z,11.4
2019-05-01T08:14:51.986Z,11.3
2019-05-01T08:15:49.524Z,11.3
2019-05-01T08:16:50.930Z,11.4
2019-05-01T08:17:53.143Z,11.3
2019-05-01T08:18:53.820Z,11.3
2019-05-01T08:19:55.335Z,11.3
2019-05-01T08:20:56.743Z,11.3
2019-05-01T08:22:01.597Z,11.2
2019-05-01T08:22:59.587Z,11.4
2019-05-01T08:24:01.098Z,11.3
2019-05-01T08:25:02.498Z,11.5
2019-05-01T08:26:08.427Z,11.5
2019-05-01T08:27:05.347Z,11.5
2019-05-01T08:28:06.859Z,11.5
2019-05-01T08:29:08.326Z,11.5
2019-05-01T08:30:12.827Z,11.5
2019-05-01T08:31:11.107Z,11.4
2019-05-01T08:32:12.621Z,11.1
2019-05-01T08:33:14.671Z,11.1
2019-05-01T08:34:15.391Z,10.7
2019-05-01T08:35:16.941Z,11.0
2019-05-01T08:36:18.345Z,11.2
2019-05-01T08:37:22.507Z,11.3
2019-05-01T08:38:21.267Z,11.3
2019-05-01T08:39:22.666Z,11.5
2019-05-01T08:40:24.068Z,11.6
2019-05-01T08:41:26.967Z,11.7
2019-05-01T08:42:28.014Z,11.7
2019-05-01T08:43:29.416Z,11.8
2019-05-01T08:44:30.943Z,11.8
2019-05-01T08:45:35.718Z,11.8
2019-05-01T08:46:33.703Z,11.9
2019-05-01T08:47:35.252Z,11.9
2019-05-01T08:48:37.728Z,11.9
2019-05-01T08:49:42.249Z,12.0
2019-05-01T08:50:39.571Z,11.8
2019-05-01T08:51:40.976Z,11.9
2019-05-01T08:52:42.710Z,11.8
2019-05-01T08:53:43.895Z,11.9
2019-05-01T08:54:45.299Z,11.8
2019-05-01T08:55:47.108Z,11.8
2019-05-01T08:56:48.215Z,11.6
2019-05-01T08:57:49.630Z,11.7
2019-05-01T08:58:51.035Z,11.8
2019-05-01T08:59:55.693Z,11.9
2019-05-01T09:00:53.909Z,11.8
2019-05-01T09:02:08.509Z,11.7
2019-05-01T09:03:07.911Z,11.6
2019-05-01T09:03:58.251Z,11.7
2019-05-01T09:05:02.412Z,11.7
2019-05-01T09:06:01.181Z,11.8
2019-05-01T09:07:02.592Z,11.9
2019-05-01T09:08:04.065Z,12.0
2019-05-01T09:09:08.355Z,11.7
2019-05-01T09:10:08.923Z,11.7
2019-05-01T09:11:08.386Z,11.7
2019-05-01T09:12:11.856Z,11.9
2019-05-01T09:13:11.263Z,12.0
2019-05-01T09:14:12.672Z,12.0
2019-05-01T09:15:14.709Z,11.9
2019-05-01T09:16:15.585Z,12.0
2019-05-01T09:17:16.988Z,12.0
2019-05-01T09:18:18.947Z,12.0
2019-05-01T09:19:20.599Z,11.8
2019-05-01T09:20:22.051Z,11.8
2019-05-01T09:21:23.454Z,11.8
2019-05-01T09:22:24.858Z,11.8
2019-05-01T09:23:26.486Z,11.9
2019-05-01T09:24:29.317Z,12.0
2019-05-01T09:25:30.968Z,11.9
2019-05-01T09:26:30.807Z,11.8
2019-05-01T09:27:32.218Z,12.0
2019-05-01T09:28:35.903Z,11.9
2019-05-01T09:29:35.134Z,12.0
2019-05-01T09:30:36.540Z,12.1
2019-05-01T09:31:37.936Z,12.0
2019-05-01T09:32:39.451Z,12.0
2019-05-01T09:33:40.867Z,12.0
2019-05-01T09:34:42.276Z,12.0
2019-05-01T09:35:45.273Z,12.1
2019-05-01T09:36:45.151Z,12.1
2019-05-01T09:37:46.547Z,12.0
2019-05-01T09:38:49.965Z,11.8
2019-05-01T09:39:49.510Z,11.9
2019-05-01T09:40:50.894Z,11.8
2019-05-01T09:41:52.417Z,11.9
2019-05-01T09:42:54.715Z,11.9
2019-05-01T09:43:55.185Z,12.1
2019-05-01T09:44:56.740Z,12.0
2019-05-01T09:45:58.144Z,12.1
2019-05-01T09:46:59.549Z,12.1
2019-05-01T09:48:00.957Z,12.2
2019-05-01T09:49:02.499Z,12.1
2019-05-01T09:50:03.906Z,11.7
2019-05-01T09:51:05.637Z,12.0
2019-05-01T09:52:06.747Z,12.2
2019-05-01T09:53:08.260Z,12.3
2019-05-01T09:54:10.902Z,12.3
2019-05-01T09:55:11.036Z,12.3
2019-05-01T09:56:12.580Z,12.3
2019-05-01T09:57:13.982Z,12.3
2019-05-01T09:58:15.389Z,12.3
2019-05-01T09:59:17.355Z,12.3
2019-05-01T10:00:18.275Z,12.3
2019-05-01T10:01:23.985Z,12.2
2019-05-01T10:02:21.154Z,12.3
2019-05-01T10:03:22.663Z,12.2
2019-05-01T10:04:25.365Z,12.3
2019-05-01T10:05:29.079Z,12.3
2019-05-01T10:06:26.911Z,12.2
2019-05-01T10:07:28.972Z,12.4
2019-05-01T10:08:29.814Z,12.4
2019-05-01T10:09:32.263Z,12.2
2019-05-01T10:10:33.774Z,12.4
2019-05-01T10:11:36.016Z,12.4
2019-05-01T10:12:36.546Z,12.4
2019-05-01T10:13:38.097Z,12.4
2019-05-01T10:14:39.504Z,12.3
2019-05-01T10:15:40.902Z,12.3
2019-05-01T10:16:42.439Z,12.3
2019-05-01T10:17:43.849Z,12.3
2019-05-01T10:18:45.297Z,12.3
2019-05-01T10:19:46.702Z,12.2
2019-05-01T10:20:48.102Z,12.3
2019-05-01T10:21:49.617Z,12.3
2019-05-01T10:22:51.027Z,12.1
2019-05-01T10:23:52.905Z,12.3
2019-05-01T10:24:53.940Z,12.4
2019-05-01T10:25:55.346Z,12.5
2019-05-01T10:27:00.111Z,12.6
2019-05-01T10:27:58.120Z,12.6
2019-05-01T10:28:59.521Z,12.6
2019-05-01T10:30:01.635Z,12.7
2019-05-01T10:31:02.522Z,12.6
2019-05-01T10:32:03.932Z,12.7
2019-05-01T10:33:05.465Z,12.8
2019-05-01T10:34:07.576Z,12.8
2019-05-01T10:35:08.250Z,13.0
2019-05-01T10:36:18.253Z,13.0
2019-05-01T10:37:11.154Z,12.9
2019-05-01T10:38:12.563Z,12.9
2019-05-01T10:39:15.990Z,13.0
2019-05-01T10:40:15.472Z,12.8
2019-05-01T10:41:16.881Z,12.8
2019-05-01T10:42:18.429Z,12.9
2019-05-01T10:43:19.839Z,12.9
2019-05-01T10:44:21.243Z,12.9
2019-05-01T10:45:22.749Z,13.0
2019-05-01T10:46:24.156Z,12.9
2019-05-01T10:47:25.574Z,12.8
2019-05-01T10:48:27.070Z,13.0
2019-05-01T10:49:28.557Z,12.8
2019-05-01T10:50:29.958Z,12.9
2019-05-01T10:51:31.597Z,12.9
2019-05-01T10:52:33.041Z,12.9
2019-05-01T10:53:34.457Z,13.0
2019-05-01T10:54:35.918Z,13.0
2019-05-01T10:55:37.323Z,13.0
2019-05-01T10:56:38.798Z,13.0
2019-05-01T10:57:42.133Z,13.0
2019-05-01T10:58:41.692Z,13.2
2019-05-01T10:59:43.125Z,13.2
2019-05-01T11:00:44.764Z,13.2
2019-05-01T11:01:46.167Z,13.2
2019-05-01T11:02:47.646Z,13.1
2019-05-01T11:03:49.055Z,13.3
2019-05-01T11:04:50.532Z,13.4
2019-05-01T11:05:56.229Z,13.4
2019-05-01T11:06:53.305Z,13.5
2019-05-01T11:07:54.849Z,13.5
2019-05-01T11:08:56.252Z,13.4
2019-05-01T11:09:57.658Z,13.4
2019-05-01T11:10:59.170Z,13.3
2019-05-01T11:12:00.576Z,13.4
2019-05-01T11:13:02.050Z,13.5
2019-05-01T11:14:03.454Z,13.5
2019-05-01T11:15:04.930Z,13.6
2019-05-01T11:16:06.337Z,13.7
2019-05-01T11:17:07.739Z,13.6
2019-05-01T11:18:09.251Z,13.7
2019-05-01T11:19:10.655Z,13.7
2019-05-01T11:20:12.067Z,13.6
2019-05-01T11:21:13.574Z,13.6
2019-05-01T11:22:14.976Z,13.6
2019-05-01T11:23:16.455Z,13.6
2019-05-01T11:24:17.861Z,13.8
2019-05-01T11:25:19.266Z,14.0
2019-05-01T11:26:20.776Z,14.0
2019-05-01T11:27:22.182Z,14.2
2019-05-01T11:28:23.588Z,14.3
2019-05-01T11:29:25.096Z,14.3
2019-05-01T11:30:26.500Z,14.2
2019-05-01T11:31:27.907Z,14.3
2019-05-01T11:32:29.419Z,14.1
2019-05-01T11:33:30.823Z,14.1
2019-05-01T11:34:32.297Z,14.0
2019-05-01T11:35:33.714Z,14.0
2019-05-01T11:36:35.119Z,13.9
2019-05-01T11:37:36.620Z,14.1
2019-05-01T11:38:38.045Z,14.2
2019-05-01T11:39:40.865Z,14.3
2019-05-01T11:40:40.942Z,14.4
2019-05-01T11:41:42.346Z,14.6
2019-05-01T11:42:43.824Z,14.7
2019-05-01T11:43:45.231Z,15.0
2019-05-01T11:44:46.705Z,15.2
2019-05-01T11:45:48.111Z,15.1
2019-05-01T11:46:49.518Z,15.1
2019-05-01T11:47:51.021Z,15.1
2019-05-01T11:48:52.432Z,15.1
2019-05-01T11:49:53.839Z,14.9
2019-05-01T11:50:55.347Z,15.2
2019-05-01T11:51:56.754Z,15.3
2019-05-01T11:52:58.158Z,15.4
2019-05-01T11:54:02.183Z,15.8
2019-05-01T11:55:01.144Z,15.7
2019-05-01T11:56:02.551Z,15.7
2019-05-01T11:57:03.989Z,15.5
2019-05-01T11:58:05.397Z,15.3
2019-05-01T11:59:06.871Z,15.2
2019-05-01T12:00:08.292Z,15.2
2019-05-01T12:01:09.697Z,15.1
2019-05-01T12:02:11.194Z,15.0
2019-05-01T12:03:12.657Z,15.2
2019-05-01T12:04:14.062Z,15.1
2019-05-01T12:05:15.593Z,15.4
2019-05-01T12:06:23.064Z,15.6
2019-05-01T12:07:18.377Z,15.6
2019-05-01T12:08:19.834Z,15.2
2019-05-01T12:09:21.241Z,15.5
2019-05-01T12:10:22.648Z,15.4
2019-05-01T12:11:24.156Z,15.3
2019-05-01T12:12:25.564Z,15.5
2019-05-01T12:13:27.039Z,15.5
2019-05-01T12:14:28.511Z,15.5
2019-05-01T12:15:30.120Z,15.4
2019-05-01T12:16:31.525Z,15.4
2019-05-01T12:17:33.108Z,15.1
2019-05-01T12:18:34.515Z,15.0
2019-05-01T12:19:36.089Z,15.1
2019-05-01T12:20:37.490Z,15.1
2019-05-01T12:21:38.898Z,15.2
2019-05-01T12:22:40.411Z,15.1
2019-05-01T12:23:41.816Z,15.0
2019-05-01T12:24:43.227Z,15.2
2019-05-01T12:25:44.776Z,15.3
2019-05-01T12:26:46.183Z,15.4
2019-05-01T12:27:47.593Z,15.4
2019-05-01T12:28:49.082Z,15.4
2019-05-01T12:29:50.462Z,16.2
2019-05-01T12:30:51.869Z,16.8
2019-05-01T12:31:53.377Z,17.1
2019-05-01T12:32:54.785Z,17.7
2019-05-01T12:33:56.255Z,18.0
2019-05-01T12:34:57.659Z,17.9
2019-05-01T12:35:59.135Z,18.6
2019-05-01T12:37:00.543Z,18.5
2019-05-01T12:38:02.113Z,18.0
2019-05-01T12:39:03.521Z,17.7
2019-05-01T12:40:05.100Z,17.5
2019-05-01T12:41:06.510Z,17.1
2019-05-01T12:42:07.988Z,17.0
2019-05-01T12:43:12.214Z,17.0
2019-05-01T12:44:13.118Z,17.1
2019-05-01T12:45:15.484Z,17.1
2019-05-01T12:46:17.476Z,17.1
2019-05-01T12:47:19.494Z,17.0
2019-05-01T12:48:20.906Z,17.1
2019-05-01T12:49:22.311Z,17.0
2019-05-01T12:50:23.810Z,17.2
2019-05-01T12:51:25.216Z,17.1
2019-05-01T12:52:26.625Z,17.0
2019-05-01T12:53:28.148Z,16.6
2019-05-01T12:54:29.560Z,16.6
2019-05-01T12:55:31.012Z,16.6
2019-05-01T12:56:32.418Z,16.5
2019-05-01T12:57:33.823Z,16.2
2019-05-01T12:58:35.332Z,16.3
2019-05-01T12:59:36.738Z,16.4
2019-05-01T13:00:38.599Z,16.2
2019-05-01T13:01:39.653Z,16.0
2019-05-01T13:02:41.063Z,16.1
2019-05-01T13:03:42.469Z,16.2
2019-05-01T13:04:43.974Z,16.1
2019-05-01T13:05:45.379Z,16.2
2019-05-01T13:06:49.511Z,15.9
2019-05-01T13:07:48.299Z,15.7
2019-05-01T13:08:49.705Z,15.8
2019-05-01T13:09:51.111Z,16.1
2019-05-01T13:10:52.620Z,15.8
2019-05-01T13:11:54.028Z,15.6
2019-05-01T13:12:55.428Z,15.6
2019-05-01T13:13:56.943Z,15.7
2019-05-01T13:14:58.369Z,15.4
2019-05-01T13:15:59.835Z,15.8
2019-05-01T13:17:01.240Z,15.6
2019-05-01T13:18:02.668Z,15.5
2019-05-01T13:19:04.142Z,15.8
2019-05-01T13:20:05.549Z,16.0
2019-05-01T13:21:06.953Z,15.8
2019-05-01T13:22:08.460Z,15.6
2019-05-01T13:23:09.868Z,15.7
2019-05-01T13:24:11.342Z,15.8
2019-05-01T13:25:12.749Z,15.9
2019-05-01T13:26:14.225Z,15.9
2019-05-01T13:27:15.633Z,15.9
2019-05-01T13:28:17.108Z,16.0
2019-05-01T13:29:18.513Z,16.0
2019-05-01T13:30:19.986Z,15.9
2019-05-01T13:31:21.399Z,15.9
2019-05-01T13:32:22.797Z,15.7
2019-05-01T13:33:24.310Z,15.3
2019-05-01T13:34:25.715Z,15.3
2019-05-01T13:35:27.117Z,15.4
2019-05-01T13:36:28.627Z,15.5
2019-05-01T13:37:30.037Z,15.5
2019-05-01T13:38:31.443Z,15.6
2019-05-01T13:39:33.052Z,15.7
2019-05-01T13:40:34.486Z,15.9
2019-05-01T13:41:36.137Z,15.9
2019-05-01T13:42:37.544Z,15.9
2019-05-01T13:43:38.951Z,15.9
2019-05-01T13:44:40.664Z,15.7
2019-05-01T13:45:42.074Z,15.9